This is the latest recevied weather packets stored in our database for station/object MARKET. If no packets are shown the sender has not sent any weather packets the latest 1 day(s).
| Time | Temp. | Humidity | Pressure | Rain* | Wind** | Luminosity | Snow |
|---|---|---|---|---|---|---|---|
| 1836274177 | 16.11° C | 90% | 1005.8 hPa | - | 10.28 m/s, 233° | - | - |
| 1778047646 | 4.44° C | 77% | 1013.5 hPa | - | 4.02 m/s, 321° | - | - |
| 1778046446 | 4.44° C | 77% | 1013.4 hPa | - | 4.92 m/s, 319° | - | - |
| 1778045247 | 4.44° C | 75% | 1013.1 hPa | - | 4.92 m/s, 321° | - | - |
| 1778044046 | 4.44° C | 79% | 1013 hPa | - | 5.36 m/s, 311° | - | - |
| 1778042847 | 4.44° C | 79% | 1012.8 hPa | - | 4.47 m/s, 305° | - | - |
| 1778041646 | 4.44° C | 77% | 1012.6 hPa | - | 5.36 m/s, 300° | - | - |
| 1778040446 | 4.44° C | 78% | 1012.4 hPa | - | 5.36 m/s, 297° | - | - |
| 1778039247 | 4.44° C | 78% | 1012.1 hPa | - | 5.81 m/s, 297° | - | - |
| 1778038046 | 4.44° C | 77% | 1011.9 hPa | - | 6.26 m/s, 298° | - | - |
| 1778036846 | 4.44° C | 78% | 1011.7 hPa | - | 6.26 m/s, 294° | - | - |
| 1778035646 | 4.44° C | 80% | 1011.6 hPa | - | 5.36 m/s, 294° | - | - |
| 1778034446 | 5° C | 74% | 1011.4 hPa | - | 6.71 m/s, 299° | - | - |
| 1778033245 | 5° C | 75% | 1011.2 hPa | - | 6.26 m/s, 297° | - | - |
| 1778032046 | 5° C | 74% | 1011.2 hPa | - | 6.71 m/s, 294° | - | - |
| 1778030845 | 4.44° C | 77% | 1011 hPa | - | 7.15 m/s, 289° | - | - |
| 1778029646 | 4.44° C | 73% | 1010.7 hPa | - | 7.6 m/s, 288° | - | - |
| 1778028445 | 4.44° C | 71% | 1010.5 hPa | - | 7.6 m/s, 286° | - | - |
| 1778027246 | 5° C | 71% | 1010.4 hPa | - | 6.26 m/s, 276° | - | - |
| 1778026046 | 5° C | 75% | 1010.3 hPa | - | 5.81 m/s, 274° | - | - |
| 1778024845 | 5° C | 72% | 1010.2 hPa | - | 7.15 m/s, 266° | - | - |
| 1778023646 | 5° C | 73% | 1010 hPa | - | 7.15 m/s, 258° | - | - |
| 1778022445 | 5° C | 80% | 1010 hPa | - | 5.36 m/s, 234° | - | - |
| 1778021245 | 5° C | 82% | 1010.1 hPa | - | 4.92 m/s, 229° | - | - |
| 1778020045 | 5° C | 76% | 1010 hPa | - | 4.02 m/s, 217° | - | - |
* Rain since midnight (hover to see other rain measurements)
** Current wind speed in m/s (hover to see current wind gust speed)